Time;durP1;ratioP1;P1;durP2;ratioP2;P2;SDS_P1;SDS_P2;PMS_P1;PMS_P2;Temp;Humidity;BMP_temperature;BMP_pressure;BME280_temperature;BME280_humidity;BME280_pressure;Samples;Min_cycle;Max_cycle;Signal;HPM_P1;HPM_P2
2021/12/15 00:02:25;;;;;;;21.42;14.60;;;;;;;10.27;74.80;102885.31;5062150;28;20077;-58
2021/12/15 00:04:56;;;;;;;24.45;15.43;;;;;;;10.28;74.77;102886.13;5061575;28;20052;-58
2021/12/15 00:07:26;;;;;;;22.02;15.60;;;;;;;10.29;74.68;102888.66;5062097;28;20087;-59
2021/12/15 00:09:54;;;;;;;23.67;15.68;;;;;;;10.28;74.38;102884.28;5061978;28;20041;-58
2021/12/15 00:12:22;;;;;;;27.00;17.17;;;;;;;10.28;74.59;102875.38;5060122;28;20506;-57
2021/12/15 00:14:51;;;;;;;23.63;15.95;;;;;;;10.21;74.45;102859.09;5056225;28;20072;-59
2021/12/15 00:17:19;;;;;;;27.92;16.63;;;;;;;10.28;74.68;102870.84;5058726;28;20140;-59
2021/12/15 00:19:47;;;;;;;21.55;15.02;;;;;;;10.29;74.78;102863.63;5054473;28;20072;-55
2021/12/15 00:22:16;;;;;;;24.42;16.67;;;;;;;10.29;74.63;102863.63;5056180;28;20075;-52
2021/12/15 00:24:44;;;;;;;21.20;14.85;;;;;;;10.28;74.79;102857.41;5059310;28;20072;-58
2021/12/15 00:27:12;;;;;;;26.40;17.00;;;;;;;10.29;74.60;102866.31;5058509;28;20097;-59
2021/12/15 00:29:40;;;;;;;24.65;16.67;;;;;;;10.28;74.71;102868.16;5058071;28;20041;-58
2021/12/15 00:32:09;;;;;;;25.67;15.85;;;;;;;10.20;74.35;102851.22;5059724;28;20388;-56
2021/12/15 00:34:40;;;;;;;24.67;16.67;;;;;;;10.29;74.76;102871.69;5060725;28;20060;-59
2021/12/15 00:37:08;;;;;;;24.63;16.27;;;;;;;10.28;74.37;102865.47;5057798;28;20486;-58
2021/12/15 00:39:38;;;;;;;25.98;17.05;;;;;;;10.27;74.64;102865.66;5058618;28;20195;-58
2021/12/15 00:42:06;;;;;;;26.73;16.85;;;;;;;10.27;74.76;102869.19;5059791;28;20049;-57
2021/12/15 00:44:34;;;;;;;23.17;16.63;;;;;;;10.25;74.73;102859.59;5060703;28;20056;-58
2021/12/15 00:47:02;;;;;;;23.02;15.80;;;;;;;10.25;74.73;102862.28;5060886;28;20092;-59
2021/12/15 00:49:33;;;;;;;25.02;16.23;;;;;;;10.25;74.81;102859.59;5060553;28;20045;-59
2021/12/15 00:52:02;;;;;;;24.65;16.95;;;;;;;10.23;74.74;102859.78;5062482;28;20068;-59
2021/12/15 00:54:30;;;;;;;25.45;16.30;;;;;;;10.24;74.81;102858.78;5061553;28;20127;-57
2021/12/15 00:56:59;;;;;;;26.45;17.48;;;;;;;10.23;74.55;102857.09;5061933;28;20072;-56
2021/12/15 00:59:27;;;;;;;24.83;15.70;;;;;;;10.24;74.70;102860.63;5057395;28;20052;-59
2021/12/15 01:01:56;;;;;;;24.90;15.80;;;;;;;10.22;74.76;102860.78;5059914;28;20191;-55
2021/12/15 01:04:26;;;;;;;24.55;15.88;;;;;;;10.22;74.70;102862.63;5062782;28;20044;-59
2021/12/15 01:06:57;;;;;;;26.90;16.55;;;;;;;10.22;74.91;102862.63;5060223;28;20462;-59
2021/12/15 01:09:29;;;;;;;25.38;16.50;;;;;;;10.22;74.30;102866.16;5060395;28;20040;-59
2021/12/15 01:12:14;;;;;;;22.02;15.27;;;;;;;10.21;74.57;102864.47;5060396;28;20053;-58
2021/12/15 01:20:31;;;;;;;23.60;16.27;;;;;;;10.22;74.74;102882.28;5008810;28;20073;-58
2021/12/15 01:23:07;;;;;;;25.48;15.63;;;;;;;10.21;74.92;102875.22;5005409;28;20053;-59
2021/12/15 01:25:38;;;;;;;24.88;15.70;;;;;;;10.21;74.46;102883.28;5011384;28;20053;-59
2021/12/15 01:28:08;;;;;;;26.48;16.92;;;;;;;10.13;74.72;102869.00;5010546;28;20077;-55
2021/12/15 01:30:39;;;;;;;24.33;16.92;;;;;;;10.21;75.00;102882.44;5012573;28;20130;-59
2021/12/15 01:33:07;;;;;;;23.98;16.27;;;;;;;10.13;74.59;102861.78;5007329;28;20054;-58
2021/12/15 01:35:38;;;;;;;24.25;15.88;;;;;;;10.20;74.53;102880.78;5005032;28;20050;-58
2021/12/15 01:38:06;;;;;;;25.35;16.20;;;;;;;10.21;74.58;102877.09;5011644;28;20102;-59
2021/12/15 01:40:38;;;;;;;23.52;16.17;;;;;;;10.21;74.15;102883.28;5014351;28;20758;-59
2021/12/15 01:43:16;;;;;;;25.67;16.65;;;;;;;10.22;74.88;102884.97;5010878;28;20046;-58
2021/12/15 01:48:34;;;;;;;26.52;16.38;;;;;;;10.21;74.98;102882.44;5011633;28;20056;-57
2021/12/15 01:51:03;;;;;;;25.02;16.63;;;;;;;10.22;74.97;102881.44;5016635;28;20516;-59
2021/12/15 01:53:32;;;;;;;26.70;16.70;;;;;;;10.21;74.55;102877.91;5024102;28;20075;-58
2021/12/15 01:56:01;;;;;;;24.77;16.23;;;;;;;10.22;74.92;102881.44;5066240;28;20091;-57
2021/12/15 01:58:30;;;;;;;25.15;17.13;;;;;;;10.21;74.52;102885.97;5066127;28;20076;-57
2021/12/15 02:01:01;;;;;;;31.35;16.67;;;;;;;10.21;74.84;102880.59;5065192;28;20087;-59
2021/12/15 02:03:29;;;;;;;26.85;17.35;;;;;;;10.21;74.98;102880.59;5064667;28;20103;-59
2021/12/15 02:06:00;;;;;;;25.42;16.05;;;;;;;10.21;74.94;102880.59;5062726;28;20044;-58
2021/12/15 02:08:28;;;;;;;25.10;16.92;;;;;;;10.21;74.96;102885.97;5064205;28;20475;-59
2021/12/15 02:10:56;;;;;;;26.92;16.85;;;;;;;10.21;74.69;102885.97;5065668;28;20099;-55
2021/12/15 02:13:25;;;;;;;25.98;16.13;;;;;;;10.20;74.62;102888.84;5064089;28;20486;-59
2021/12/15 02:15:57;;;;;;;25.58;17.08;;;;;;;10.20;74.84;102897.75;5063752;28;20045;-59
2021/12/15 02:18:29;;;;;;;29.58;18.35;;;;;;;10.20;74.87;102891.53;5061501;28;20338;-57
2021/12/15 02:21:01;;;;;;;30.20;17.02;;;;;;;10.19;75.08;102893.34;5065863;28;20053;-59
2021/12/15 02:23:35;;;;;;;27.60;18.30;;;;;;;10.19;75.21;102887.97;5061572;28;20059;-58
2021/12/15 02:26:08;;;;;;;25.92;17.33;;;;;;;10.19;74.96;102890.66;5067011;28;20080;-59
2021/12/15 02:28:37;;;;;;;29.10;17.52;;;;;;;10.18;75.09;102899.72;5063692;28;20052;-58
2021/12/15 02:31:12;;;;;;;28.33;16.98;;;;;;;10.19;74.59;102900.56;5061840;28;20079;-59
2021/12/15 02:33:54;;;;;;;28.60;16.55;;;;;;;10.18;74.74;102897.03;5067690;28;20112;-59
2021/12/15 02:39:10;;;;;;;27.10;16.38;;;;;;;10.17;74.68;102900.72;5064279;28;20067;-59
2021/12/15 02:41:40;;;;;;;30.95;17.65;;;;;;;10.17;74.93;102892.66;5064950;28;20052;-58
2021/12/15 02:44:13;;;;;;;27.42;16.80;;;;;;;10.17;74.74;102889.97;5064152;28;20049;-59
2021/12/15 02:46:43;;;;;;;25.70;16.52;;;;;;;10.18;75.15;102894.34;5064776;28;20083;-57
2021/12/15 02:49:14;;;;;;;29.88;16.92;;;;;;;10.17;74.56;102897.19;5063218;28;20044;-59
2021/12/15 02:51:45;;;;;;;28.65;17.92;;;;;;;10.17;75.22;102889.97;5064030;28;20091;-58
2021/12/15 02:54:15;;;;;;;27.13;17.33;;;;;;;10.18;75.03;102902.41;5062505;28;20083;-59
2021/12/15 02:56:45;;;;;;;26.25;16.70;;;;;;;10.16;75.17;102899.06;5063474;28;20056;-59
2021/12/15 02:59:15;;;;;;;25.02;16.33;;;;;;;10.16;75.16;102893.69;5063600;28;20460;-58
2021/12/15 03:01:59;;;;;;;34.83;18.50;;;;;;;10.17;75.14;102895.34;5063470;28;20060;-58
2021/12/15 03:04:37;;;;;;;29.23;16.98;;;;;;;10.17;75.23;102897.19;5066475;28;20082;-59
2021/12/15 03:07:14;;;;;;;31.52;18.08;;;;;;;10.16;74.76;102895.53;5062060;28;20080;-55
2021/12/15 03:15:29;;;;;;;26.77;15.85;;;;;;;10.17;74.64;102886.44;5063393;28;20087;-58
2021/12/15 03:18:00;;;;;;;26.05;16.98;;;;;;;10.18;74.74;102888.13;5062442;28;20099;-58
2021/12/15 03:20:29;;;;;;;26.60;16.88;;;;;;;10.17;75.03;102889.97;5060641;28;20106;-58
2021/12/15 03:23:00;;;;;;;28.58;16.92;;;;;;;10.18;75.16;102891.66;5065084;28;20075;-58
2021/12/15 03:25:30;;;;;;;22.80;15.30;;;;;;;10.18;74.98;102890.81;5064620;28;20045;-58
2021/12/15 03:33:55;;;;;;;26.67;16.40;;;;;;;10.17;74.90;102884.59;5064308;28;20049;-58
2021/12/15 03:36:37;;;;;;;25.63;15.40;;;;;;;10.16;74.94;102880.25;5061909;28;20064;-57
2021/12/15 03:39:10;;;;;;;27.38;15.75;;;;;;;10.17;74.88;102881.91;5059707;28;20049;-59
2021/12/15 03:41:39;;;;;;;28.30;17.23;;;;;;;10.18;74.79;102891.66;5063315;28;20080;-58
2021/12/15 03:44:08;;;;;;;23.52;15.80;;;;;;;10.18;75.07;102891.66;5063070;28;20128;-58
2021/12/15 03:46:36;;;;;;;23.48;14.18;;;;;;;10.18;75.08;102890.81;5062025;28;20068;-58
2021/12/15 03:49:05;;;;;;;25.48;15.20;;;;;;;10.17;74.82;102898.03;5063479;28;20063;-59
2021/12/15 03:51:32;;;;;;;22.90;14.65;;;;;;;10.17;75.12;102894.50;5067114;28;20052;-59
2021/12/15 03:54:00;;;;;;;27.23;15.52;;;;;;;10.17;75.04;102891.81;5063448;28;20080;-60
2021/12/15 03:56:30;;;;;;;23.40;14.80;;;;;;;10.16;74.80;102899.06;5062682;28;20077;-56
2021/12/15 03:58:57;;;;;;;23.35;14.70;;;;;;;10.16;75.22;102896.38;5061691;28;20075;-59
2021/12/15 04:01:25;;;;;;;23.17;14.88;;;;;;;10.16;75.31;102898.22;5061976;28;20099;-59
2021/12/15 04:03:56;;;;;;;26.23;16.15;;;;;;;10.16;75.24;102895.53;5063840;28;20080;-59
2021/12/15 04:06:27;;;;;;;26.92;16.42;;;;;;;10.15;74.69;102907.28;5063193;28;20049;-59
2021/12/15 04:08:56;;;;;;;24.73;15.02;;;;;;;10.15;74.94;102896.53;5063758;28;20083;-58
2021/12/15 04:11:26;;;;;;;24.15;14.48;;;;;;;10.14;75.11;102906.44;5064823;28;20076;-59
2021/12/15 04:14:00;;;;;;;23.63;14.60;;;;;;;10.14;74.77;102911.81;5062350;28;20049;-57
2021/12/15 04:16:43;;;;;;;25.10;14.73;;;;;;;10.14;74.89;102906.44;5062338;28;20063;-55
2021/12/15 04:19:14;;;;;;;20.88;13.50;;;;;;;10.14;75.12;102900.22;5064675;28;20041;-58
2021/12/15 04:21:42;;;;;;;25.92;14.88;;;;;;;10.15;74.84;102904.59;5062621;28;20156;-56
2021/12/15 04:24:12;;;;;;;23.08;14.30;;;;;;;10.13;74.74;102899.38;5063232;28;20049;-58
2021/12/15 04:26:40;;;;;;;23.23;14.93;;;;;;;10.14;75.00;102908.28;5060539;28;20136;-59
2021/12/15 04:29:10;;;;;;;22.50;12.77;;;;;;;10.11;74.85;102904.94;5062592;28;20064;-59
2021/12/15 04:31:44;;;;;;;22.08;15.02;;;;;;;10.12;75.16;102905.78;5062766;28;20080;-59
2021/12/15 04:34:12;;;;;;;21.85;13.13;;;;;;;10.13;74.73;102909.28;5063667;28;20055;-59
2021/12/15 04:36:42;;;;;;;23.65;14.82;;;;;;;10.13;75.43;102920.03;5062904;28;20494;-59
2021/12/15 04:39:13;;;;;;;21.92;14.13;;;;;;;10.11;75.13;102918.38;5060129;28;20037;-60
2021/12/15 04:41:46;;;;;;;19.35;13.65;;;;;;;10.11;74.90;102920.22;5061821;28;20167;-59
2021/12/15 04:44:18;;;;;;;27.02;14.85;;;;;;;10.10;74.89;102919.38;5061393;28;20049;-57
2021/12/15 04:46:50;;;;;;;23.92;13.52;;;;;;;10.11;75.22;102918.38;5061195;28;20486;-58
2021/12/15 04:49:19;;;;;;;22.80;13.57;;;;;;;10.13;75.49;102922.72;5062304;28;20148;-58
2021/12/15 04:51:48;;;;;;;21.38;14.25;;;;;;;10.13;75.06;102920.03;5063173;28;20044;-58
2021/12/15 04:54:17;;;;;;;19.00;12.63;;;;;;;10.13;75.38;102926.25;5065854;28;20061;-58
2021/12/15 04:56:45;;;;;;;21.35;13.88;;;;;;;10.12;75.17;102919.19;5067191;28;20045;-57
2021/12/15 04:59:16;;;;;;;20.73;13.38;;;;;;;10.14;75.40;102930.63;5065403;28;20079;-59
2021/12/15 05:01:44;;;;;;;19.38;13.20;;;;;;;10.13;74.92;102931.63;5069024;28;20084;-59
2021/12/15 05:04:14;;;;;;;20.65;14.05;;;;;;;10.14;75.08;102921.72;5065043;28;20049;-59
2021/12/15 05:06:41;;;;;;;19.33;12.50;;;;;;;10.13;74.99;102931.63;5065756;28;20057;-59
2021/12/15 05:09:10;;;;;;;20.15;13.43;;;;;;;10.15;75.56;102935.00;5066883;28;20086;-57
2021/12/15 05:11:38;;;;;;;21.90;13.07;;;;;;;10.14;75.28;102940.53;5065231;28;20041;-51
2021/12/15 05:14:06;;;;;;;19.75;12.93;;;;;;;10.14;75.19;102944.06;5065435;28;20045;-58
2021/12/15 05:16:35;;;;;;;22.52;13.07;;;;;;;10.15;75.61;102939.53;5066022;28;20083;-56
2021/12/15 05:19:04;;;;;;;21.13;12.82;;;;;;;10.14;75.12;102936.00;5065098;28;20068;-55
2021/12/15 05:21:31;;;;;;;20.13;12.98;;;;;;;10.13;75.51;102938.84;5064757;28;20119;-59
2021/12/15 05:24:08;;;;;;;20.17;12.63;;;;;;;10.11;75.23;102939.84;5066274;28;20049;-57
2021/12/15 05:26:36;;;;;;;20.23;11.90;;;;;;;10.11;75.53;102936.34;5065990;28;20067;-59
2021/12/15 05:29:04;;;;;;;20.52;13.02;;;;;;;10.12;75.72;102946.06;5065196;28;20079;-58
2021/12/15 05:31:33;;;;;;;22.65;13.43;;;;;;;10.12;75.80;102940.69;5065651;28;20059;-52
2021/12/15 05:34:03;;;;;;;22.35;13.40;;;;;;;10.11;75.48;102950.59;5065810;28;20049;-58
2021/12/15 05:36:31;;;;;;;19.52;12.73;;;;;;;10.10;75.53;102954.31;5067206;28;20065;-59
2021/12/15 05:38:59;;;;;;;20.98;13.55;;;;;;;10.10;75.36;102956.97;5066676;28;20064;-57
2021/12/15 05:41:27;;;;;;;20.40;12.63;;;;;;;10.11;75.44;102955.13;5065514;28;20049;-58
2021/12/15 05:43:55;;;;;;;17.80;11.38;;;;;;;10.11;75.41;102955.97;5061195;28;20436;-52
2021/12/15 05:46:23;;;;;;;21.20;13.48;;;;;;;10.09;75.41;102949.94;5068574;28;20080;-59
2021/12/15 05:48:50;;;;;;;18.15;11.70;;;;;;;10.09;75.32;102963.38;5064482;28;20071;-59
2021/12/15 05:51:20;;;;;;;21.95;13.23;;;;;;;10.09;74.99;102958.00;5067512;28;20056;-59
2021/12/15 05:53:48;;;;;;;20.40;12.55;;;;;;;10.09;75.54;102960.69;5068236;28;20099;-59
2021/12/15 05:56:18;;;;;;;18.00;11.70;;;;;;;10.09;75.62;102952.63;5069542;28;20111;-58
2021/12/15 05:58:45;;;;;;;20.33;13.70;;;;;;;10.08;75.57;102966.22;5065926;28;20053;-59
2021/12/15 06:01:14;;;;;;;19.08;12.57;;;;;;;10.10;75.59;102966.88;5063665;28;20053;-61
2021/12/15 06:03:42;;;;;;;19.42;12.63;;;;;;;10.09;75.72;102966.06;5066154;28;20059;-55
2021/12/15 06:06:10;;;;;;;21.48;12.88;;;;;;;10.09;75.17;102963.38;5064794;28;20093;-59
2021/12/15 06:08:40;;;;;;;20.65;13.32;;;;;;;10.09;75.45;102963.38;5064870;28;20055;-58
2021/12/15 06:11:08;;;;;;;21.85;13.00;;;;;;;10.09;75.28;102970.59;5065944;28;20080;-58
2021/12/15 06:13:36;;;;;;;21.40;12.82;;;;;;;10.09;75.19;102965.22;5062331;28;20346;-59
2021/12/15 06:16:05;;;;;;;19.17;11.93;;;;;;;10.09;75.81;102968.75;5064371;28;20084;-59
2021/12/15 06:18:34;;;;;;;18.67;11.40;;;;;;;10.07;75.39;102965.38;5068287;28;20083;-59
2021/12/15 06:21:02;;;;;;;18.98;11.90;;;;;;;10.07;75.27;102965.38;5067854;28;20060;-58
2021/12/15 06:23:30;;;;;;;21.27;12.80;;;;;;;10.08;75.40;102969.75;5066694;28;20064;-58
2021/12/15 06:26:02;;;;;;;20.58;12.90;;;;;;;10.09;75.33;102968.75;5062477;28;21335;-59
2021/12/15 06:28:34;;;;;;;21.33;12.50;;;;;;;10.09;75.90;102966.06;5064031;28;20116;-58
2021/12/15 06:31:06;;;;;;;20.77;12.50;;;;;;;10.10;75.72;102969.56;5063781;28;20076;-58
2021/12/15 06:33:40;;;;;;;20.10;13.15;;;;;;;10.10;75.48;102972.25;5064740;28;20052;-56
2021/12/15 06:36:09;;;;;;;18.90;12.43;;;;;;;10.11;75.36;102974.78;5061811;28;20474;-58
2021/12/15 06:38:41;;;;;;;23.67;13.80;;;;;;;10.10;75.64;102975.78;5067782;28;20049;-58
2021/12/15 06:41:12;;;;;;;19.35;12.77;;;;;;;10.10;75.52;102970.41;5063408;28;20072;-58
2021/12/15 06:43:44;;;;;;;22.30;13.88;;;;;;;10.10;75.68;102977.63;5062752;28;20094;-59
2021/12/15 06:46:33;;;;;;;21.92;13.60;;;;;;;10.10;75.60;102974.94;5063445;28;20052;-58
2021/12/15 06:58:10;;;;;;;22.20;13.18;;;;;;;10.12;75.40;102986.38;5059626;28;20053;-59
2021/12/15 07:00:23;;;;;;;21.40;13.38;;;;;;;10.13;75.81;102992.59;5056685;28;20439;-60
2021/12/15 07:02:52;;;;;;;23.88;14.48;;;;;;;10.11;75.43;102992.75;5061200;28;20091;-57
2021/12/15 07:05:22;;;;;;;21.27;13.40;;;;;;;10.04;75.47;102983.69;5059707;28;20048;-59
2021/12/15 07:07:50;;;;;;;23.67;13.63;;;;;;;10.11;75.85;102995.44;5059253;28;20060;-59
2021/12/15 07:10:22;;;;;;;20.38;13.48;;;;;;;10.09;75.25;102997.44;5061242;28;20105;-59
2021/12/15 07:12:51;;;;;;;22.85;14.55;;;;;;;10.10;75.26;102999.97;5057555;28;20052;-59
2021/12/15 07:15:20;;;;;;;23.50;13.80;;;;;;;10.10;75.40;103005.34;5059834;28;20068;-60
2021/12/15 07:17:51;;;;;;;25.08;13.82;;;;;;;10.09;76.03;102995.59;5063488;28;20041;-58
2021/12/15 07:20:41;;;;;;;21.92;13.10;;;;;;;10.05;75.74;103004.16;5063623;28;20074;-60
2021/12/15 07:23:11;;;;;;;24.52;14.07;;;;;;;10.08;75.46;103004.66;5063080;28;20083;-60
2021/12/15 07:25:41;;;;;;;22.60;13.50;;;;;;;10.08;75.87;103003.81;5061095;28;20048;-60
2021/12/15 07:28:13;;;;;;;22.77;14.10;;;;;;;10.00;75.68;102998.44;5062470;28;20139;-60
2021/12/15 07:30:42;;;;;;;26.17;14.95;;;;;;;10.06;75.59;103008.53;5060398;28;20061;-60
2021/12/15 07:33:12;;;;;;;25.75;15.65;;;;;;;10.05;76.33;103015.75;5061826;28;20068;-44
2021/12/15 07:35:41;;;;;;;24.13;15.10;;;;;;;10.05;76.03;103015.75;4711135;28;10001684;-58
2021/12/15 07:38:09;;;;;;;23.70;14.65;;;;;;;10.06;76.12;103019.28;5059649;28;20045;-58
2021/12/15 07:40:40;;;;;;;25.80;14.60;;;;;;;9.95;76.18;103006.16;5058464;28;20041;-60
2021/12/15 07:43:12;;;;;;;25.88;17.10;;;;;;;10.06;76.18;103009.38;5056625;28;20076;-60
2021/12/15 07:45:45;;;;;;;26.90;16.20;;;;;;;10.06;75.68;103016.59;5060333;28;20492;-60
2021/12/15 07:48:15;;;;;;;24.67;14.25;;;;;;;10.05;76.34;103017.59;5060263;28;20108;-70
2021/12/15 07:50:47;;;;;;;26.20;14.60;;;;;;;10.05;75.96;103021.13;5061103;28;21171;-61
2021/12/15 07:53:15;;;;;;;26.75;15.55;;;;;;;10.06;76.19;103024.66;5049722;28;20092;-58
2021/12/15 07:55:43;;;;;;;25.95;15.50;;;;;;;10.05;76.14;103022.97;5054168;28;20096;-60
2021/12/15 07:58:12;;;;;;;29.25;17.55;;;;;;;9.96;75.93;103011.38;5061898;28;20049;-61
2021/12/15 08:00:43;;;;;;;29.20;16.30;;;;;;;10.05;76.40;103025.66;5057900;28;20055;-61
2021/12/15 08:03:13;;;;;;;25.30;15.80;;;;;;;10.05;76.19;103022.97;5063088;28;20402;-61
2021/12/15 08:05:43;;;;;;;26.92;16.13;;;;;;;10.05;75.81;103028.34;5066342;28;20515;-61
2021/12/15 08:08:11;;;;;;;26.92;15.68;;;;;;;10.06;76.28;103022.81;5064266;28;20087;-60
2021/12/15 08:10:41;;;;;;;30.73;16.67;;;;;;;10.07;76.31;103034.38;5065720;28;20083;-57
2021/12/15 08:13:10;;;;;;;26.98;16.05;;;;;;;10.06;76.52;103027.34;5053758;28;20056;-56
2021/12/15 08:15:38;;;;;;;25.95;16.85;;;;;;;10.05;76.20;103029.19;5058461;28;20084;-61
2021/12/15 08:18:07;;;;;;;29.00;17.13;;;;;;;10.07;76.04;103031.69;5052016;28;20076;-61
2021/12/15 08:20:36;;;;;;;27.85;15.68;;;;;;;10.07;76.11;103034.38;5058013;28;20148;-60
2021/12/15 08:23:06;;;;;;;27.83;17.77;;;;;;;10.07;76.44;103029.84;5052704;28;20065;-60
2021/12/15 08:25:35;;;;;;;25.98;16.92;;;;;;;10.07;76.58;103040.59;5051592;28;20061;-60
2021/12/15 08:28:04;;;;;;;29.08;16.35;;;;;;;10.08;75.97;103038.75;5050989;28;20546;-60
2021/12/15 08:30:32;;;;;;;29.45;16.55;;;;;;;10.08;76.08;103041.44;5064036;28;20045;-59
2021/12/15 08:33:03;;;;;;;32.42;16.63;;;;;;;10.08;75.77;103042.28;5065746;28;20045;-61
2021/12/15 08:35:38;;;;;;;26.25;16.27;;;;;;;10.07;76.19;103034.38;5062776;28;20067;-56
2021/12/15 08:38:06;;;;;;;29.67;17.60;;;;;;;10.08;76.19;103046.81;5049461;28;20514;-56
2021/12/15 08:40:35;;;;;;;30.23;15.70;;;;;;;10.06;75.92;103044.28;5058071;28;20502;-60
2021/12/15 08:43:04;;;;;;;27.45;16.58;;;;;;;10.06;75.83;103040.75;5068105;28;20100;-61
2021/12/15 08:45:32;;;;;;;28.13;17.30;;;;;;;10.05;75.70;103036.41;5070166;28;20056;-61
2021/12/15 08:48:01;;;;;;;29.55;17.02;;;;;;;10.08;75.89;103044.97;5060810;28;20057;-61
2021/12/15 08:50:35;;;;;;;28.10;16.67;;;;;;;10.20;75.34;103037.47;5056294;28;20053;-61
2021/12/15 08:53:05;;;;;;;27.85;15.48;;;;;;;10.36;74.98;103037.50;5059601;28;20064;-60
2021/12/15 08:55:34;;;;;;;28.15;15.55;;;;;;;10.52;74.05;103044.69;5060822;28;20097;-59
2021/12/15 08:58:05;;;;;;;28.85;15.95;;;;;;;10.68;73.30;103039.31;5060604;28;20072;-61
2021/12/15 09:00:33;;;;;;;24.55;15.73;;;;;;;10.82;73.03;103045.84;5062417;28;20079;-61
2021/12/15 09:03:01;;;;;;;26.27;15.88;;;;;;;10.98;72.40;103050.38;5056778;28;20534;-61
2021/12/15 09:05:29;;;;;;;23.88;14.43;;;;;;;11.11;71.67;103041.78;5057539;28;20069;-61
2021/12/15 09:08:01;;;;;;;23.95;14.75;;;;;;;11.26;71.19;103040.91;5053384;28;20080;-60
2021/12/15 09:10:32;;;;;;;23.58;15.05;;;;;;;11.38;70.70;103054.84;5060699;28;20051;-61
2021/12/15 09:13:01;;;;;;;25.15;15.05;;;;;;;11.50;70.25;103058.00;5049019;28;20069;-57
2021/12/15 09:15:30;;;;;;;23.75;15.25;;;;;;;11.51;70.19;103049.72;5058910;28;20068;-60
2021/12/15 09:17:58;;;;;;;27.50;16.08;;;;;;;11.43;70.61;103051.63;5052240;28;20051;-58
2021/12/15 09:20:28;;;;;;;24.60;15.13;;;;;;;11.32;70.67;103048.28;5051648;28;20087;-57
2021/12/15 09:22:57;;;;;;;26.27;16.20;;;;;;;11.21;71.20;103062.09;5058839;28;20167;-61
2021/12/15 09:25:26;;;;;;;26.25;15.88;;;;;;;11.08;71.90;103070.72;5072858;28;20064;-61
2021/12/15 09:27:58;;;;;;;26.48;16.63;;;;;;;11.01;72.42;103068.88;5055689;28;20049;-59
2021/12/15 09:30:28;;;;;;;23.77;15.50;;;;;;;10.94;72.65;103070.56;5045065;28;20049;-61
2021/12/15 09:32:58;;;;;;;29.48;16.20;;;;;;;10.87;72.73;103064.19;5059493;28;20053;-59
2021/12/15 09:35:27;;;;;;;24.42;15.68;;;;;;;10.82;73.32;103071.91;5063355;28;20083;-62
2021/12/15 09:37:56;;;;;;;22.95;14.82;;;;;;;10.76;73.54;103076.97;5065243;28;20080;-60
2021/12/15 09:40:25;;;;;;;22.90;15.00;;;;;;;10.72;73.77;103080.16;5063523;28;20045;-46
2021/12/15 09:42:53;;;;;;;24.00;15.27;;;;;;;10.68;73.73;103073.44;5065811;28;20060;-60
2021/12/15 09:45:34;;;;;;;25.08;16.80;;;;;;;10.64;74.46;103086.38;5067696;28;20088;-61
2021/12/15 09:56:23;;;;;;;30.52;18.35;;;;;;;10.59;74.54;103083.34;5051800;28;20115;-61
2021/12/15 09:57:16;;;;;;;27.88;16.95;;;;;;;10.50;75.13;103075.44;5057729;28;20073;-58
2021/12/15 10:02:48;;;;;;;27.85;16.90;;;;;;;10.47;75.41;103084.69;5066939;28;20068;-62
2021/12/15 10:11:41;;;;;;;31.50;18.33;;;;;;;10.43;75.94;103083.31;5060274;28;20265;-62
2021/12/15 10:19:51;;;;;;;25.45;16.50;;;;;;;10.42;75.63;103090.56;5058014;28;20057;-58
2021/12/15 10:22:29;;;;;;;30.38;17.98;;;;;;;10.56;75.23;103086.38;5064175;28;20056;-58
2021/12/15 10:24:59;;;;;;;26.67;15.88;;;;;;;10.75;74.40;103094.09;5066868;28;20063;-60
2021/12/15 10:27:41;;;;;;;27.92;16.67;;;;;;;10.94;73.55;103084.00;5065530;28;20080;-57
2021/12/15 10:30:19;;;;;;;23.55;15.98;;;;;;;11.07;73.04;103082.50;5059461;28;20053;-58
2021/12/15 10:32:50;;;;;;;26.75;16.75;;;;;;;11.24;72.64;103082.47;5068183;28;20135;-61
2021/12/15 10:35:20;;;;;;;23.30;15.45;;;;;;;11.33;71.96;103082.28;5065001;28;20076;-57
2021/12/15 10:38:15;;;;;;;31.23;17.60;;;;;;;11.31;72.54;103087.00;5065977;28;20072;-59
2021/12/15 10:40:46;;;;;;;24.30;16.15;;;;;;;11.26;72.02;103086.66;5073112;28;21011;-60
2021/12/15 10:43:14;;;;;;;28.17;17.10;;;;;;;11.16;72.49;103083.31;5065528;28;20040;-59
2021/12/15 10:45:47;;;;;;;23.38;15.45;;;;;;;11.06;73.13;103080.81;5065592;28;20384;-59
2021/12/15 10:48:25;;;;;;;26.67;17.20;;;;;;;10.92;73.23;103072.59;5076278;28;20053;-60
2021/12/15 10:50:53;;;;;;;25.20;16.67;;;;;;;10.93;73.53;103090.41;5063678;28;20456;-59
2021/12/15 10:53:35;;;;;;;32.65;17.40;;;;;;;10.86;74.26;103084.88;5059821;28;20045;-60
2021/12/15 10:56:10;;;;;;;31.60;18.30;;;;;;;10.82;74.42;103090.75;5067251;28;20056;-60
2021/12/15 10:58:40;;;;;;;29.27;17.83;;;;;;;10.79;74.59;103091.91;5063013;28;20051;-60
2021/12/15 11:01:36;;;;;;;30.75;19.48;;;;;;;10.74;75.15;103086.22;5057425;28;20359;-60
2021/12/15 11:04:13;;;;;;;29.02;19.02;;;;;;;10.70;75.26;103082.16;5061123;28;20064;-60
2021/12/15 11:06:41;;;;;;;30.50;18.92;;;;;;;10.68;75.29;103087.72;5061055;28;20124;-60
2021/12/15 11:09:18;;;;;;;31.33;18.90;;;;;;;10.65;75.52;103089.91;5063954;28;20045;-58
2021/12/15 11:11:56;;;;;;;;;;;;;;;10.63;75.80;103090.06;5050483;28;20083;-59
2021/12/15 11:14:29;;;;;;;33.30;20.27;;;;;;;10.61;76.10;103086.72;5065657;28;19956;-60
2021/12/15 11:17:12;;;;;;;36.33;21.10;;;;;;;10.56;76.44;103080.16;4705476;28;10000028;-61
2021/12/15 11:19:47;;;;;;;31.23;20.83;;;;;;;10.56;76.25;103085.53;5060058;28;20310;-61
2021/12/15 11:22:37;;;;;;;34.35;21.23;;;;;;;10.55;76.51;103081.16;5060808;28;20117;-60
2021/12/15 11:25:08;;;;;;;30.30;19.25;;;;;;;10.53;76.32;103073.25;5069717;28;20076;-61
2021/12/15 11:27:36;;;;;;;34.75;20.77;;;;;;;10.53;76.29;103075.09;5063901;28;20097;-60
2021/12/15 11:30:07;;;;;;;34.55;20.65;;;;;;;10.55;76.69;103075.78;5063616;28;20060;-61
2021/12/15 11:32:40;;;;;;;32.35;20.52;;;;;;;10.54;76.48;103076.78;5060232;28;20131;-60
2021/12/15 11:35:12;;;;;;;27.50;18.63;;;;;;;10.53;76.52;103073.25;5062104;28;20064;-63
2021/12/15 11:37:48;;;;;;;30.02;19.08;;;;;;;10.53;76.25;103070.56;5067866;28;20121;-62
2021/12/15 11:40:17;;;;;;;32.80;20.77;;;;;;;10.52;76.38;103063.50;5063403;28;20095;-62
2021/12/15 11:42:45;;;;;;;30.40;18.38;;;;;;;10.52;76.08;103068.88;5070879;28;20075;-62
2021/12/15 11:45:14;;;;;;;32.20;20.50;;;;;;;10.51;76.41;103063.69;5059892;28;20077;-60
2021/12/15 11:47:43;;;;;;;30.35;19.05;;;;;;;10.49;76.10;103058.47;5046150;28;20139;-60
2021/12/15 11:50:14;;;;;;;30.75;19.27;;;;;;;10.50;76.48;103060.16;5069104;28;20118;-61
2021/12/15 11:52:45;;;;;;;28.90;18.73;;;;;;;10.51;76.17;103069.06;5056191;28;20079;-61
2021/12/15 11:55:25;;;;;;;28.98;18.40;;;;;;;10.49;76.19;103069.22;5065353;28;20198;-62
2021/12/15 11:57:54;;;;;;;35.90;19.48;;;;;;;10.37;76.36;103049.06;5062714;28;20119;-60
2021/12/15 12:00:25;;;;;;;28.38;19.00;;;;;;;10.47;76.74;103063.16;5053461;28;20071;-62
2021/12/15 12:02:56;;;;;;;27.98;19.65;;;;;;;10.49;76.70;103069.22;5066426;28;20044;-60
2021/12/15 12:05:26;;;;;;;30.05;18.80;;;;;;;10.48;76.74;103061.31;5066473;28;20087;-61
2021/12/15 12:07:58;;;;;;;25.48;17.85;;;;;;;10.50;76.38;103064.69;5059626;28;20045;-61
2021/12/15 12:10:32;;;;;;;31.48;18.63;;;;;;;10.39;76.76;103058.66;5065531;28;20155;-61
2021/12/15 12:13:08;;;;;;;29.80;17.42;;;;;;;10.49;76.76;103068.38;5063808;28;20102;-59
2021/12/15 12:15:39;;;;;;;28.77;18.88;;;;;;;10.48;76.54;103059.47;5069353;28;20069;-61
2021/12/15 12:18:12;;;;;;;27.77;18.88;;;;;;;10.54;76.48;103057.97;5062900;28;20083;-61
2021/12/15 12:20:43;;;;;;;26.63;17.33;;;;;;;10.68;75.88;103049.22;5053240;28;20057;-61